Time;durP1;ratioP1;P1;durP2;ratioP2;P2;SDS_P1;SDS_P2;PMS_P1;PMS_P2;Temp;Humidity;BMP_temperature;BMP_pressure;BME280_temperature;BME280_humidity;BME280_pressure;Samples;Min_cycle;Max_cycle;Signal;HPM_P1;HPM_P2
2021/03/04 05:01:12;;;;;;;;;;;8.40;99.90;;;;;;5688891;22;20431;-65
2021/03/04 05:03:38;;;;;;;;;;;8.40;99.90;;;;;;5059223;28;19932;-66
2021/03/04 05:06:04;;;;;;;;;;;8.40;99.90;;;;;;5058723;28;19932;-67
2021/03/04 05:08:30;;;;;;;;;;;8.40;99.90;;;;;;5058277;28;19947;-67
2021/03/04 05:10:56;;;;;;;;;;;8.40;99.90;;;;;;5081062;22;20295;-64
2021/03/04 05:13:22;;;;;;;;;;;8.40;99.90;;;;;;5058475;28;19928;-64
2021/03/04 05:15:49;;;;;;;;;;;8.40;99.90;;;;;;5058057;28;19925;-65
2021/03/04 05:18:15;;;;;;;;;;;8.40;99.90;;;;;;5057776;28;19929;-64
2021/03/04 05:20:41;;;;;;;;;;;8.40;99.90;;;;;;5057548;28;20260;-63
2021/03/04 05:23:07;;;;;;;;;;;8.40;99.90;;;;;;5056943;28;20299;-64
2021/03/04 05:25:33;;;;;;;;;;;8.40;99.90;;;;;;5056875;28;20354;-64
2021/03/04 05:28:00;;;;;;;;;;;8.40;99.90;;;;;;5056884;28;19998;-64
2021/03/04 05:30:26;;;;;;;;;;;8.40;99.90;;;;;;5057140;28;19925;-64
2021/03/04 05:32:52;;;;;;;;;;;8.40;99.90;;;;;;5057021;28;20402;-64
2021/03/04 05:35:19;;;;;;;;;;;8.30;99.90;;;;;;5057130;28;20363;-64
2021/03/04 05:37:45;;;;;;;;;;;8.30;99.90;;;;;;5057281;28;19932;-65
2021/03/04 05:40:11;;;;;;;;;;;8.20;99.90;;;;;;5058095;28;19925;-64
2021/03/04 05:42:41;;;;;;;;;;;8.20;99.90;;;;;;5058063;28;19989;-64
2021/03/04 05:45:08;;;;;;;;;;;8.20;99.90;;;;;;5057392;28;19975;-64
2021/03/04 05:47:34;;;;;;;;;;;8.20;99.90;;;;;;5057711;28;19925;-65
2021/03/04 05:50:02;;;;;;;;;;;8.10;99.90;;;;;;5057332;28;19924;-64
2021/03/04 05:52:30;;;;;;;;;;;8.10;99.90;;;;;;5057843;28;20275;-63
2021/03/04 05:54:56;;;;;;;;;;;8.20;99.90;;;;;;5057265;28;20229;-63
2021/03/04 05:57:23;;;;;;;;;;;8.20;99.90;;;;;;5057362;28;19973;-64
2021/03/04 05:59:51;;;;;;;;;;;8.20;99.90;;;;;;5056961;28;19925;-63
2021/03/04 06:02:17;;;;;;;;;;;8.20;99.90;;;;;;5057160;28;19925;-63
2021/03/04 06:04:43;;;;;;;;;;;8.10;99.90;;;;;;5057224;28;19929;-64
2021/03/04 06:07:09;;;;;;;;;;;8.20;99.90;;;;;;5056922;28;19924;-64
2021/03/04 06:09:36;;;;;;;;;;;8.30;99.90;;;;;;5056732;28;19924;-63
2021/03/04 06:12:03;;;;;;;;;;;8.40;99.90;;;;;;5056775;28;19932;-64
2021/03/04 06:14:29;;;;;;;;;;;8.60;99.90;;;;;;5055959;28;20276;-64
2021/03/04 06:16:55;;;;;;;;;;;8.70;99.90;;;;;;5055567;28;19940;-64
2021/03/04 06:19:21;;;;;;;;;;;8.80;99.90;;;;;;5055493;28;19924;-64
2021/03/04 06:21:56;;;;;;;;;;;8.80;99.90;;;;;;5055514;28;19931;-63
2021/03/04 06:24:22;;;;;;;;;;;8.80;99.90;;;;;;5056132;28;19924;-62
2021/03/04 06:26:53;;;;;;;;;;;8.80;99.90;;;;;;5055192;28;19925;-62
2021/03/04 06:29:20;;;;;;;;;;;8.80;99.90;;;;;;5054999;28;19924;-62
2021/03/04 06:31:57;;;;;;;;;;;8.70;99.90;;;;;;5055235;28;19925;-62
2021/03/04 06:34:23;;;;;;;;;;;8.70;99.90;;;;;;5054660;28;19928;-62
2021/03/04 06:36:53;;;;;;;;;;;8.70;99.90;;;;;;5054755;28;20402;-62
2021/03/04 06:39:19;;;;;;;;;;;8.70;99.90;;;;;;5054669;28;19924;-63
2021/03/04 06:41:45;;;;;;;;;;;8.70;99.90;;;;;;5055003;28;19932;-62
2021/03/04 06:44:12;;;;;;;;;;;8.70;99.90;;;;;;5055040;28;19925;-63
2021/03/04 06:46:45;;;;;;;;;;;8.60;99.90;;;;;;5054624;28;20412;-62
2021/03/04 06:49:11;;;;;;;;;;;8.60;99.90;;;;;;5054800;28;19963;-63
2021/03/04 06:51:42;;;;;;;;;;;8.60;99.90;;;;;;5054827;28;19959;-63
2021/03/04 06:54:08;;;;;;;;;;;8.60;99.90;;;;;;5054501;28;19932;-63
2021/03/04 06:56:34;;;;;;;;;;;8.60;99.90;;;;;;5054797;28;19982;-62
2021/03/04 06:59:00;;;;;;;;;;;8.70;99.90;;;;;;5054643;28;19990;-62
2021/03/04 07:01:28;;;;;;;;;;;8.70;99.90;;;;;;5054684;28;19964;-63
2021/03/04 07:03:54;;;;;;;;;;;8.80;99.90;;;;;;5054654;28;19929;-62
2021/03/04 07:06:21;;;;;;;;;;;8.90;99.90;;;;;;5054511;28;20283;-63
2021/03/04 07:08:47;;;;;;;;;;;9.10;99.90;;;;;;5054708;28;19925;-62
2021/03/04 07:11:14;;;;;;;;;;;9.30;99.90;;;;;;5054367;28;19937;-62
2021/03/04 07:13:40;;;;;;;;;;;9.40;99.90;;;;;;5054765;28;19929;-62
2021/03/04 07:16:07;;;;;;;;;;;9.30;99.90;;;;;;5055663;28;19924;-63
2021/03/04 07:18:38;;;;;;;;;;;9.60;99.90;;;;;;5055152;28;19928;-62
2021/03/04 07:21:05;;;;;;;;;;;9.80;99.90;;;;;;5054779;28;19929;-63
2021/03/04 07:23:32;;;;;;;;;;;10.30;99.90;;;;;;5054776;28;19924;-62
2021/03/04 07:25:58;;;;;;;;;;;10.80;99.90;;;;;;5054468;28;20031;-62
2021/03/04 07:28:24;;;;;;;;;;;11.40;99.90;;;;;;5054198;28;19929;-62
2021/03/04 07:30:51;;;;;;;;;;;11.80;99.90;;;;;;5054058;28;19978;-63
2021/03/04 07:33:17;;;;;;;;;;;12.20;99.90;;;;;;5054136;28;19932;-63
2021/03/04 07:35:46;;;;;;;;;;;12.50;99.90;;;;;;5053746;28;20407;-63
2021/03/04 07:38:21;;;;;;;;;;;13.10;99.90;;;;;;5054109;28;19924;-62
2021/03/04 07:40:58;;;;;;;;;;;13.50;99.90;;;;;;5054126;28;19925;-63
2021/03/04 07:43:24;;;;;;;;;;;13.70;99.90;;;;;;5054489;28;19933;-64
2021/03/04 07:45:50;;;;;;;;;;;13.80;99.90;;;;;;5054229;28;19929;-63
2021/03/04 07:48:17;;;;;;;;;;;13.80;99.90;;;;;;5054010;28;20390;-62
2021/03/04 07:50:55;;;;;;;;;;;14.20;99.90;;;;;;5053330;28;20008;-62
2021/03/04 07:53:21;;;;;;;;;;;14.50;99.90;;;;;;5054037;28;19925;-63
2021/03/04 07:55:47;;;;;;;;;;;15.10;99.90;;;;;;5053788;28;19925;-64
2021/03/04 07:58:14;;;;;;;;;;;15.60;98.80;;;;;;5053867;28;20015;-64
2021/03/04 08:00:40;;;;;;;;;;;16.00;97.00;;;;;;5053745;28;19925;-64
2021/03/04 08:03:06;;;;;;;;;;;16.60;95.50;;;;;;5053930;28;19931;-63
2021/03/04 08:05:33;;;;;;;;;;;16.70;95.20;;;;;;5053944;28;19925;-63
2021/03/04 08:08:09;;;;;;;;;;;16.90;93.10;;;;;;5053960;28;19932;-64
2021/03/04 08:10:42;;;;;;;;;;;16.90;93.10;;;;;;5053633;28;19925;-65
2021/03/04 08:13:08;;;;;;;;;;;16.80;96.20;;;;;;5053867;28;19946;-63
2021/03/04 08:15:35;;;;;;;;;;;16.40;97.00;;;;;;5053730;28;20037;-63
2021/03/04 08:18:01;;;;;;;;;;;15.50;95.50;;;;;;5053798;28;19925;-64
2021/03/04 08:20:27;;;;;;;;;;;15.80;97.00;;;;;;5053550;28;19924;-62
2021/03/04 08:22:54;;;;;;;;;;;16.60;95.00;;;;;;5053824;28;19978;-63
2021/03/04 08:25:22;;;;;;;;;;;17.10;93.40;;;;;;5053965;28;20329;-62
2021/03/04 08:27:48;;;;;;;;;;;17.10;92.00;;;;;;5053975;28;19932;-62
2021/03/04 08:30:15;;;;;;;;;;;17.10;92.20;;;;;;5053520;28;19924;-62
2021/03/04 08:32:42;;;;;;;;;;;17.90;91.30;;;;;;5053603;28;19924;-62
2021/03/04 08:35:15;;;;;;;;;;;18.30;90.30;;;;;;5053646;28;19956;-62
2021/03/04 08:37:41;;;;;;;;;;;18.30;87.30;;;;;;5053593;28;19932;-61
2021/03/04 08:40:08;;;;;;;;;;;18.60;88.70;;;;;;5053645;28;19951;-62
2021/03/04 08:42:35;;;;;;;;;;;19.10;83.30;;;;;;5053556;28;19933;-62
2021/03/04 08:45:01;;;;;;;;;;;19.50;84.40;;;;;;5053434;28;19987;-62
2021/03/04 08:47:27;;;;;;;;;;;20.00;82.30;;;;;;5053557;28;20341;-62
2021/03/04 08:49:54;;;;;;;;;;;20.20;77.50;;;;;;5053451;28;19925;-62
2021/03/04 08:52:22;;;;;;;;;;;20.10;76.80;;;;;;5053752;28;19931;-63
2021/03/04 08:54:49;;;;;;;;;;;20.40;73.90;;;;;;5054190;28;20019;-62
2021/03/04 08:57:20;;;;;;;;;;;20.70;72.30;;;;;;5053468;28;19996;-63
2021/03/04 08:59:47;;;;;;;;;;;21.10;70.30;;;;;;5053341;28;19975;-63
2021/03/04 09:02:14;;;;;;;;;;;21.70;68.00;;;;;;5056648;28;19935;-61
2021/03/04 09:04:40;;;;;;;;;;;21.80;64.90;;;;;;5057002;28;19978;-61
2021/03/04 09:07:06;;;;;;;;;;;21.30;63.60;;;;;;5057010;28;19932;-62
2021/03/04 09:09:32;;;;;;;;;;;21.20;61.40;;;;;;5056490;28;19929;-61
2021/03/04 09:11:58;;;;;;;;;;;20.60;63.60;;;;;;5056895;28;19929;-62
2021/03/04 09:14:25;;;;;;;;;;;20.40;62.80;;;;;;5056379;28;20398;-62
2021/03/04 09:16:52;;;;;;;;;;;20.40;65.20;;;;;;5056820;28;19924;-62
2021/03/04 09:19:28;;;;;;;;;;;20.10;63.40;;;;;;5057400;28;20314;-62
2021/03/04 09:21:54;;;;;;;;;;;19.90;63.70;;;;;;5056302;28;20387;-62
2021/03/04 09:24:21;;;;;;;;;;;19.50;64.30;;;;;;5056584;28;19971;-62
2021/03/04 09:26:47;;;;;;;;;;;19.50;63.50;;;;;;5056132;28;19925;-62
2021/03/04 09:29:14;;;;;;;;;;;19.70;63.10;;;;;;5056322;28;19928;-63
2021/03/04 09:31:48;;;;;;;;;;;19.50;63.60;;;;;;5056319;28;19932;-61
2021/03/04 09:34:15;;;;;;;;;;;20.50;59.70;;;;;;5056394;28;19929;-63
2021/03/04 09:36:41;;;;;;;;;;;21.00;59.90;;;;;;5056363;28;19925;-61
2021/03/04 09:39:07;;;;;;;;;;;21.60;59.00;;;;;;5056614;28;20314;-62
2021/03/04 09:41:33;;;;;;;;;;;22.00;56.80;;;;;;5056445;28;19924;-63
2021/03/04 09:44:01;;;;;;;;;;;22.10;56.80;;;;;;5056674;28;19925;-63
2021/03/04 09:46:28;;;;;;;;;;;22.10;57.30;;;;;;5056410;28;19931;-63
2021/03/04 09:48:54;;;;;;;;;;;22.50;55.00;;;;;;5056202;28;19929;-63
2021/03/04 09:51:30;;;;;;;;;;;22.90;55.50;;;;;;5056356;28;20269;-62
2021/03/04 09:53:56;;;;;;;;;;;23.50;54.70;;;;;;5056109;28;19947;-63
2021/03/04 09:56:22;;;;;;;;;;;23.40;54.40;;;;;;5056259;28;20341;-63
2021/03/04 09:58:49;;;;;;;;;;;24.50;55.00;;;;;;5056334;28;19924;-63
2021/03/04 10:01:26;;;;;;;;;;;24.80;53.10;;;;;;5056196;28;19968;-63
2021/03/04 10:03:58;;;;;;;;;;;24.70;51.80;;;;;;5056330;28;19931;-62
2021/03/04 10:06:25;;;;;;;;;;;24.40;51.20;;;;;;5057490;28;19924;-63
2021/03/04 10:08:53;;;;;;;;;;;24.60;52.20;;;;;;5061457;28;19978;-62
2021/03/04 10:11:23;;;;;;;;;;;24.70;52.80;;;;;;5056459;28;19991;-62
2021/03/04 10:13:49;;;;;;;;;;;25.20;53.00;;;;;;5055073;28;19925;-63
2021/03/04 10:16:15;;;;;;;;;;;24.90;51.30;;;;;;5055705;28;19964;-63
2021/03/04 10:18:45;;;;;;;;;;;25.40;51.10;;;;;;5055473;28;19943;-62
2021/03/04 10:21:11;;;;;;;;;;;25.20;52.00;;;;;;5055559;28;19925;-62
2021/03/04 10:23:38;;;;;;;;;;;25.30;52.10;;;;;;5055299;28;19932;-62
2021/03/04 10:26:04;;;;;;;;;;;25.20;53.00;;;;;;5055554;28;19979;-62
2021/03/04 10:28:30;;;;;;;;;;;25.50;53.00;;;;;;5055713;28;19924;-63
2021/03/04 10:30:56;;;;;;;;;;;25.60;51.20;;;;;;5055265;28;19931;-63
2021/03/04 10:33:22;;;;;;;;;;;24.80;50.80;;;;;;5055493;28;20334;-63
2021/03/04 10:35:48;;;;;;;;;;;25.00;52.90;;;;;;5055312;28;19932;-62
2021/03/04 10:38:14;;;;;;;;;;;25.20;53.10;;;;;;5055308;28;19929;-62
2021/03/04 10:40:41;;;;;;;;;;;25.30;55.60;;;;;;5055289;28;19979;-62
2021/03/04 10:43:07;;;;;;;;;;;25.30;55.30;;;;;;5055048;28;20290;-62
2021/03/04 10:45:33;;;;;;;;;;;25.90;53.50;;;;;;5054984;28;20349;-63
2021/03/04 10:47:59;;;;;;;;;;;26.30;52.00;;;;;;5054824;28;20378;-63
2021/03/04 10:50:25;;;;;;;;;;;26.60;55.50;;;;;;5055029;28;19955;-63
2021/03/04 10:52:51;;;;;;;;;;;26.10;51.30;;;;;;5054676;28;20398;-63
2021/03/04 10:55:18;;;;;;;;;;;26.30;52.40;;;;;;5054861;28;19933;-63
2021/03/04 10:57:44;;;;;;;;;;;26.20;52.90;;;;;;5055145;28;19948;-63
2021/03/04 11:00:11;;;;;;;;;;;26.30;55.00;;;;;;5054783;28;20405;-63
2021/03/04 11:02:37;;;;;;;;;;;26.40;53.10;;;;;;5054756;28;19924;-63
2021/03/04 11:05:04;;;;;;;;;;;26.00;53.00;;;;;;5054844;28;20393;-63
2021/03/04 11:07:30;;;;;;;;;;;25.90;53.50;;;;;;5055190;28;19925;-63
2021/03/04 11:09:56;;;;;;;;;;;26.10;53.70;;;;;;5054297;28;19924;-62
2021/03/04 11:12:22;;;;;;;;;;;25.70;54.70;;;;;;5055180;28;19947;-61
2021/03/04 11:14:50;;;;;;;;;;;24.80;53.80;;;;;;5054491;28;19925;-63
2021/03/04 11:17:16;;;;;;;;;;;24.00;55.60;;;;;;5054805;28;19925;-65
2021/03/04 11:19:42;;;;;;;;;;;23.70;57.90;;;;;;5054584;28;20372;-61
2021/03/04 11:22:08;;;;;;;;;;;23.40;58.30;;;;;;5055155;28;19924;-61
2021/03/04 11:24:35;;;;;;;;;;;23.00;57.40;;;;;;5056345;28;19925;-61
2021/03/04 11:27:01;;;;;;;;;;;22.80;53.70;;;;;;5057950;28;19925;-61
2021/03/04 11:29:27;;;;;;;;;;;22.50;55.90;;;;;;5059624;28;19925;-63
2021/03/04 11:31:54;;;;;;;;;;;22.30;57.70;;;;;;5058406;28;19932;-63
2021/03/04 11:34:20;;;;;;;;;;;22.10;53.90;;;;;;5057086;28;19924;-62
2021/03/04 11:36:46;;;;;;;;;;;21.90;54.20;;;;;;5056993;28;19975;-63
2021/03/04 11:39:12;;;;;;;;;;;21.50;55.30;;;;;;5054239;28;19935;-63
2021/03/04 11:41:38;;;;;;;;;;;21.00;54.20;;;;;;5055214;28;19987;-63
2021/03/04 11:44:04;;;;;;;;;;;20.90;55.80;;;;;;5054726;28;19986;-65
2021/03/04 11:46:30;;;;;;;;;;;20.80;57.40;;;;;;5054384;28;20302;-63
2021/03/04 11:48:57;;;;;;;;;;;20.60;56.60;;;;;;5054349;28;19924;-64
2021/03/04 11:51:24;;;;;;;;;;;20.80;57.80;;;;;;5054152;28;20453;-63
2021/03/04 11:53:50;;;;;;;;;;;20.80;56.60;;;;;;5054410;28;19931;-63
2021/03/04 11:56:16;;;;;;;;;;;20.30;54.50;;;;;;5054218;28;19932;-63
2021/03/04 11:58:42;;;;;;;;;;;20.50;56.20;;;;;;5054239;28;19931;-63
2021/03/04 12:01:08;;;;;;;;;;;20.70;56.40;;;;;;5053827;28;19925;-63
2021/03/04 12:03:34;;;;;;;;;;;20.80;57.30;;;;;;5053569;28;19979;-63
2021/03/04 12:06:01;;;;;;;;;;;20.70;55.50;;;;;;5053674;28;19932;-63
2021/03/04 12:08:27;;;;;;;;;;;20.80;57.40;;;;;;5053950;28;19925;-63
2021/03/04 12:10:53;;;;;;;;;;;20.80;57.60;;;;;;5053453;28;19925;-63
2021/03/04 12:13:19;;;;;;;;;;;20.90;56.30;;;;;;5053857;28;20009;-63
2021/03/04 12:15:45;;;;;;;;;;;20.80;55.50;;;;;;5053562;28;20371;-63
2021/03/04 12:18:11;;;;;;;;;;;21.00;55.70;;;;;;5053272;28;20442;-63
2021/03/04 12:20:38;;;;;;;;;;;20.90;54.40;;;;;;5053277;28;19995;-62
2021/03/04 12:23:06;;;;;;;;;;;20.80;55.60;;;;;;5053572;28;19982;-63
2021/03/04 12:25:33;;;;;;;;;;;20.70;54.00;;;;;;5053801;28;19925;-63
2021/03/04 12:27:59;;;;;;;;;;;20.30;54.20;;;;;;5055812;28;19931;-63
2021/03/04 12:30:26;;;;;;;;;;;20.10;54.50;;;;;;5055508;28;19925;-63
2021/03/04 12:32:52;;;;;;;;;;;20.00;56.70;;;;;;5053672;28;19925;-63
2021/03/04 12:35:18;;;;;;;;;;;20.20;57.80;;;;;;5053952;28;19932;-63
2021/03/04 12:37:44;;;;;;;;;;;20.20;54.20;;;;;;5057970;28;19936;-62
2021/03/04 12:40:12;;;;;;;;;;;20.10;55.40;;;;;;5058064;28;19925;-62
2021/03/04 12:42:38;;;;;;;;;;;19.80;54.50;;;;;;5057685;28;19924;-63
2021/03/04 12:45:05;;;;;;;;;;;19.70;56.00;;;;;;5057857;28;19979;-63
2021/03/04 12:47:32;;;;;;;;;;;19.60;54.40;;;;;;5057286;28;20387;-63
2021/03/04 12:50:01;;;;;;;;;;;19.30;54.10;;;;;;5057439;28;19925;-63
2021/03/04 12:52:27;;;;;;;;;;;19.00;55.90;;;;;;5057225;28;19925;-62
2021/03/04 12:54:53;;;;;;;;;;;19.10;57.40;;;;;;5057253;28;19947;-62
2021/03/04 12:57:20;;;;;;;;;;;19.30;58.10;;;;;;5057352;28;19925;-63
2021/03/04 12:59:46;;;;;;;;;;;19.40;54.50;;;;;;5057141;28;19925;-62
2021/03/04 13:02:12;;;;;;;;;;;19.50;55.90;;;;;;5058597;28;19924;-62
2021/03/04 13:04:38;;;;;;;;;;;19.60;55.30;;;;;;5058397;28;19925;-63
2021/03/04 13:07:04;;;;;;;;;;;19.70;55.10;;;;;;5057296;28;19978;-63
2021/03/04 13:09:30;;;;;;;;;;;19.80;55.50;;;;;;5056483;28;20367;-63
2021/03/04 13:11:56;;;;;;;;;;;20.00;55.70;;;;;;5057100;28;19925;-62
2021/03/04 13:14:24;;;;;;;;;;;20.30;54.30;;;;;;5056440;28;20390;-63
2021/03/04 13:16:50;;;;;;;;;;;20.30;54.00;;;;;;5056783;28;19967;-63
2021/03/04 13:19:16;;;;;;;;;;;20.10;53.30;;;;;;5057143;28;19928;-62
2021/03/04 13:21:42;;;;;;;;;;;19.80;53.50;;;;;;5056719;28;19931;-63
2021/03/04 13:24:08;;;;;;;;;;;19.50;54.30;;;;;;5056731;28;19924;-63
2021/03/04 13:26:34;;;;;;;;;;;19.30;53.50;;;;;;5056727;28;19929;-62
2021/03/04 13:29:00;;;;;;;;;;;18.90;54.30;;;;;;5056139;28;20383;-63
2021/03/04 13:31:27;;;;;;;;;;;18.60;54.00;;;;;;5056349;28;20283;-63
2021/03/04 13:33:53;;;;;;;;;;;18.30;55.20;;;;;;5056356;28;19925;-61
2021/03/04 13:36:19;;;;;;;;;;;18.10;55.00;;;;;;5056412;28;19925;-62
2021/03/04 13:38:45;;;;;;;;;;;17.90;55.90;;;;;;5056534;28;19925;-61
2021/03/04 13:41:11;;;;;;;;;;;17.70;56.10;;;;;;5056457;28;20295;-62
2021/03/04 13:43:38;;;;;;;;;;;17.60;56.40;;;;;;5056148;28;20356;-62
2021/03/04 13:46:05;;;;;;;;;;;17.50;57.60;;;;;;5056496;28;19929;-62
2021/03/04 13:48:32;;;;;;;;;;;17.50;57.20;;;;;;5055206;28;19932;-62
2021/03/04 13:50:58;;;;;;;;;;;17.40;56.30;;;;;;5056144;28;19932;-62
2021/03/04 13:53:25;;;;;;;;;;;17.30;59.80;;;;;;5056410;28;19932;-61
2021/03/04 13:55:51;;;;;;;;;;;17.40;63.30;;;;;;5056508;28;19932;-62
2021/03/04 13:58:17;;;;;;;;;;;17.30;57.90;;;;;;5056248;28;19924;-62
2021/03/04 14:00:43;;;;;;;;;;;17.10;56.90;;;;;;5056352;28;19924;-61
2021/03/04 14:03:09;;;;;;;;;;;16.90;57.00;;;;;;5056656;28;19924;-62
2021/03/04 14:05:37;;;;;;;;;;;16.80;57.70;;;;;;5057629;28;19928;-62
2021/03/04 14:08:03;;;;;;;;;;;16.70;57.40;;;;;;5056429;28;20398;-62
2021/03/04 14:10:29;;;;;;;;;;;16.60;59.40;;;;;;5055440;28;19983;-61
2021/03/04 14:12:55;;;;;;;;;;;16.70;58.20;;;;;;5056174;28;19971;-62
2021/03/04 14:15:21;;;;;;;;;;;16.70;57.70;;;;;;5056436;28;19932;-62
2021/03/04 14:17:47;;;;;;;;;;;16.70;58.30;;;;;;5056258;28;19925;-62
2021/03/04 14:20:14;;;;;;;;;;;16.60;59.00;;;;;;5057455;28;20334;-62
2021/03/04 14:22:41;;;;;;;;;;;16.60;58.10;;;;;;5059692;28;19932;-62
2021/03/04 14:25:08;;;;;;;;;;;16.30;58.60;;;;;;5060499;28;19971;-61
2021/03/04 14:27:34;;;;;;;;;;;16.30;58.60;;;;;;5058438;28;19932;-62
2021/03/04 14:30:00;;;;;;;;;;;16.30;58.90;;;;;;5055668;28;19932;-61
2021/03/04 14:32:27;;;;;;;;;;;16.30;59.80;;;;;;5055255;28;20375;-62
2021/03/04 14:34:58;;;;;;;;;;;16.40;61.50;;;;;;5055725;28;19925;-63
2021/03/04 14:37:24;;;;;;;;;;;16.40;59.50;;;;;;5055869;28;20008;-62
2021/03/04 14:39:51;;;;;;;;;;;16.30;59.30;;;;;;5055428;28;19925;-62
2021/03/04 14:42:17;;;;;;;;;;;16.30;60.60;;;;;;5055608;28;19925;-62
2021/03/04 14:44:43;;;;;;;;;;;16.20;60.30;;;;;;5055492;28;19932;-62
2021/03/04 14:47:09;;;;;;;;;;;16.30;61.30;;;;;;5055490;28;19925;-62
2021/03/04 14:49:35;;;;;;;;;;;16.30;61.10;;;;;;5054937;28;19925;-62
2021/03/04 14:52:01;;;;;;;;;;;16.10;59.70;;;;;;5054972;28;20402;-62
2021/03/04 14:54:27;;;;;;;;;;;16.20;61.10;;;;;;5055179;28;19924;-62
2021/03/04 14:56:54;;;;;;;;;;;16.10;60.30;;;;;;5055098;28;19925;-62
2021/03/04 14:59:20;;;;;;;;;;;16.10;61.20;;;;;;5055270;28;19972;-62
2021/03/04 15:01:46;;;;;;;;;;;16.20;62.30;;;;;;5055374;28;19932;-62
2021/03/04 15:04:12;;;;;;;;;;;16.20;62.20;;;;;;5055266;28;19936;-62
2021/03/04 15:06:38;;;;;;;;;;;16.10;61.60;;;;;;5055254;28;19924;-62
2021/03/04 15:09:04;;;;;;;;;;;16.00;61.90;;;;;;5054830;28;19929;-62
2021/03/04 15:11:31;;;;;;;;;;;16.10;64.70;;;;;;5055130;28;19988;-63
2021/03/04 15:13:57;;;;;;;;;;;16.00;62.40;;;;;;5054810;28;19924;-63
2021/03/04 15:16:23;;;;;;;;;;;15.90;62.80;;;;;;5054730;28;19978;-62
2021/03/04 15:18:50;;;;;;;;;;;15.80;63.70;;;;;;5054729;28;19925;-62
2021/03/04 15:21:17;;;;;;;;;;;15.90;64.40;;;;;;5054877;28;19931;-63
2021/03/04 15:23:43;;;;;;;;;;;15.80;63.40;;;;;;5054417;28;20414;-62
2021/03/04 15:26:09;;;;;;;;;;;15.70;61.80;;;;;;5054674;28;19994;-62
2021/03/04 15:28:36;;;;;;;;;;;15.70;62.60;;;;;;5054480;28;20311;-63
2021/03/04 15:31:04;;;;;;;;;;;15.70;62.40;;;;;;5054572;28;19925;-63
2021/03/04 15:33:30;;;;;;;;;;;15.70;64.40;;;;;;5054701;28;19972;-63
2021/03/04 15:35:56;;;;;;;;;;;15.70;62.60;;;;;;5054732;28;19924;-63
2021/03/04 15:38:22;;;;;;;;;;;15.80;65.70;;;;;;5055351;28;19925;-62
2021/03/04 15:40:48;;;;;;;;;;;15.90;62.80;;;;;;5056089;28;19948;-62
2021/03/04 15:43:14;;;;;;;;;;;15.90;62.60;;;;;;5055766;28;19924;-63
2021/03/04 15:45:40;;;;;;;;;;;15.90;63.50;;;;;;5055075;28;20291;-63
2021/03/04 15:48:08;;;;;;;;;;;16.00;62.70;;;;;;5055199;28;19925;-63
2021/03/04 15:50:35;;;;;;;;;;;16.00;63.00;;;;;;5055383;28;19924;-63
2021/03/04 15:53:01;;;;;;;;;;;15.90;62.80;;;;;;5057981;28;19924;-63
2021/03/04 15:55:27;;;;;;;;;;;15.70;61.00;;;;;;5054865;28;19924;-63
2021/03/04 15:57:53;;;;;;;;;;;15.60;61.90;;;;;;5054772;28;19924;-63
2021/03/04 16:00:20;;;;;;;;;;;15.50;63.10;;;;;;5054339;28;19924;-63
2021/03/04 16:02:46;;;;;;;;;;;15.30;63.30;;;;;;5054550;28;19925;-63
2021/03/04 16:05:14;;;;;;;;;;;15.20;64.60;;;;;;5054597;28;19928;-64
2021/03/04 16:07:40;;;;;;;;;;;15.10;64.40;;;;;;5054142;28;19925;-62
2021/03/04 16:10:06;;;;;;;;;;;15.10;64.30;;;;;;5052807;28;19932;-62
2021/03/04 16:12:33;;;;;;;;;;;15.10;65.70;;;;;;5054434;28;20334;-63
2021/03/04 16:14:59;;;;;;;;;;;15.00;65.00;;;;;;5054053;28;19925;-63
2021/03/04 16:17:25;;;;;;;;;;;15.00;66.10;;;;;;5054314;28;19984;-63
2021/03/04 16:19:51;;;;;;;;;;;14.90;82.60;;;;;;5054535;28;20290;-64
2021/03/04 16:22:18;;;;;;;;;;;15.10;85.50;;;;;;5054151;28;19924;-63
2021/03/04 16:24:44;;;;;;;;;;;15.20;90.00;;;;;;5054437;28;19925;-64
2021/03/04 16:27:10;;;;;;;;;;;15.30;80.00;;;;;;5054073;28;20059;-64
2021/03/04 16:29:37;;;;;;;;;;;15.40;76.50;;;;;;5053904;28;20324;-63
2021/03/04 16:32:03;;;;;;;;;;;15.40;75.40;;;;;;5053883;28;19925;-63
2021/03/04 16:34:29;;;;;;;;;;;15.40;72.00;;;;;;5053871;28;19935;-62
2021/03/04 16:36:55;;;;;;;;;;;15.40;71.50;;;;;;5053852;28;19928;-62
2021/03/04 16:39:23;;;;;;;;;;;15.30;70.90;;;;;;5053845;28;19924;-62
2021/03/04 16:41:49;;;;;;;;;;;15.30;70.80;;;;;;5053687;28;19925;-62
2021/03/04 16:44:15;;;;;;;;;;;15.20;71.20;;;;;;5053772;28;20353;-62
2021/03/04 16:46:42;;;;;;;;;;;15.20;71.70;;;;;;5053626;28;19925;-62
2021/03/04 16:49:09;;;;;;;;;;;15.20;71.30;;;;;;5053468;28;19925;-64
2021/03/04 16:51:35;;;;;;;;;;;15.10;83.60;;;;;;5053815;28;19990;-64
2021/03/04 16:54:01;;;;;;;;;;;15.20;88.70;;;;;;5053653;28;19948;-64
2021/03/04 16:56:28;;;;;;;;;;;15.10;80.00;;;;;;5053631;28;19925;-64
2021/03/04 16:58:54;;;;;;;;;;;15.10;84.60;;;;;;5053899;28;19925;-64
2021/03/04 17:01:20;;;;;;;;;;;15.10;84.80;;;;;;5053790;28;19932;-63
2021/03/04 17:03:46;;;;;;;;;;;15.20;82.70;;;;;;5053792;28;19925;-62
2021/03/04 17:06:13;;;;;;;;;;;15.10;80.60;;;;;;5054406;28;19928;-64
2021/03/04 17:08:40;;;;;;;;;;;15.10;83.30;;;;;;5054025;28;19925;-65
2021/03/04 17:11:06;;;;;;;;;;;15.10;81.30;;;;;;5053297;28;19971;-64
2021/03/04 17:13:34;;;;;;;;;;;15.00;82.70;;;;;;5053370;28;19932;-65
2021/03/04 17:16:00;;;;;;;;;;;14.90;83.70;;;;;;5053211;28;19932;-64
2021/03/04 17:18:27;;;;;;;;;;;14.90;84.10;;;;;;5053577;28;19924;-65
2021/03/04 17:20:53;;;;;;;;;;;14.80;85.30;;;;;;5056881;28;20268;-65
2021/03/04 17:23:20;;;;;;;;;;;14.80;82.90;;;;;;5062770;28;19924;-64
2021/03/04 17:25:46;;;;;;;;;;;14.80;89.00;;;;;;5061896;28;19933;-61
2021/03/04 17:28:13;;;;;;;;;;;14.80;84.30;;;;;;5058204;28;19932;-62
2021/03/04 17:30:40;;;;;;;;;;;14.80;85.10;;;;;;5056944;28;19925;-64
2021/03/04 17:33:07;;;;;;;;;;;14.80;86.20;;;;;;5056955;28;19933;-64
2021/03/04 17:35:34;;;;;;;;;;;14.80;86.90;;;;;;5057014;28;19925;-63
2021/03/04 17:38:00;;;;;;;;;;;14.70;80.30;;;;;;5057013;28;19932;-60
2021/03/04 17:40:26;;;;;;;;;;;14.60;80.80;;;;;;5056733;28;19924;-61
2021/03/04 17:42:52;;;;;;;;;;;14.50;83.70;;;;;;5056753;28;19931;-63
2021/03/04 17:45:18;;;;;;;;;;;14.30;80.90;;;;;;5057694;28;20322;-61
2021/03/04 17:47:45;;;;;;;;;;;14.30;84.00;;;;;;5056828;28;19924;-62
2021/03/04 17:50:13;;;;;;;;;;;14.30;90.30;;;;;;5056848;28;19928;-68
2021/03/04 17:52:39;;;;;;;;;;;14.20;82.10;;;;;;5056938;28;19925;-62
2021/03/04 17:55:07;;;;;;;;;;;14.20;82.60;;;;;;5056669;28;19929;-63
2021/03/04 17:57:33;;;;;;;;;;;14.20;81.50;;;;;;5056596;28;19925;-63
2021/03/04 17:59:59;;;;;;;;;;;14.10;80.90;;;;;;5056866;28;19924;-68
2021/03/04 18:02:25;;;;;;;;;;;14.10;82.40;;;;;;5056767;28;19925;-64
2021/03/04 18:04:51;;;;;;;;;;;14.00;81.60;;;;;;5057288;28;19932;-63
2021/03/04 18:07:17;;;;;;;;;;;14.00;83.50;;;;;;5056878;28;19924;-64
2021/03/04 18:09:44;;;;;;;;;;;13.90;82.90;;;;;;5056966;28;19935;-65
2021/03/04 18:12:10;;;;;;;;;;;13.90;84.10;;;;;;5057153;28;20020;-64
2021/03/04 18:14:36;;;;;;;;;;;13.90;84.30;;;;;;5056728;28;19932;-65
2021/03/04 18:17:02;;;;;;;;;;;13.90;84.10;;;;;;5056773;28;19991;-65
2021/03/04 18:19:28;;;;;;;;;;;13.70;84.10;;;;;;5056715;28;19925;-65
2021/03/04 18:21:55;;;;;;;;;;;13.60;84.40;;;;;;5056707;28;19931;-63
2021/03/04 18:24:21;;;;;;;;;;;13.60;91.10;;;;;;5056553;28;19928;-64
2021/03/04 18:26:47;;;;;;;;;;;13.50;87.50;;;;;;5056901;28;19924;-66
2021/03/04 18:29:13;;;;;;;;;;;13.40;86.60;;;;;;5056432;28;19929;-66
2021/03/04 18:31:39;;;;;;;;;;;13.30;87.40;;;;;;5056992;28;19996;-65
2021/03/04 18:34:05;;;;;;;;;;;13.20;89.30;;;;;;5060802;28;20050;-65
2021/03/04 18:36:31;;;;;;;;;;;13.20;89.60;;;;;;5061864;28;19925;-66
2021/03/04 18:38:58;;;;;;;;;;;13.10;89.60;;;;;;5060487;28;19940;-67
2021/03/04 18:41:24;;;;;;;;;;;13.10;90.00;;;;;;5055609;28;20314;-65
2021/03/04 18:43:50;;;;;;;;;;;13.00;90.30;;;;;;5056144;28;19925;-65
2021/03/04 18:46:16;;;;;;;;;;;13.00;90.40;;;;;;5056239;28;19924;-64
2021/03/04 18:48:44;;;;;;;;;;;12.90;91.10;;;;;;5055583;28;21385;-65
2021/03/04 18:51:10;;;;;;;;;;;12.90;91.40;;;;;;5056198;28;19925;-63
2021/03/04 18:53:36;;;;;;;;;;;12.80;91.60;;;;;;5055858;28;19929;-64
2021/03/04 18:56:03;;;;;;;;;;;12.60;92.80;;;;;;5056190;28;19932;-64
2021/03/04 18:58:29;;;;;;;;;;;12.20;99.70;;;;;;5056028;28;19928;-64
2021/03/04 19:00:55;;;;;;;;;;;11.70;99.90;;;;;;5055891;28;19928;-64
2021/03/04 19:03:21;;;;;;;;;;;11.00;99.90;;;;;;5055599;28;19924;-64
2021/03/04 19:05:47;;;;;;;;;;;10.60;99.90;;;;;;5056169;28;19925;-64
2021/03/04 19:08:13;;;;;;;;;;;10.30;99.90;;;;;;5055575;28;19925;-66
2021/03/04 19:10:39;;;;;;;;;;;10.10;99.90;;;;;;5055376;28;19925;-64
2021/03/04 19:13:06;;;;;;;;;;;10.00;99.90;;;;;;5055518;28;19928;-66
2021/03/04 19:15:32;;;;;;;;;;;10.00;99.90;;;;;;5055369;28;19925;-64